createdAt,value
2019-05-21T00:00:40.000Z,8.67
2019-05-21T00:03:08.681Z,9.67
2019-05-21T00:05:37.179Z,13.70
2019-05-21T00:08:05.815Z,15.97
2019-05-21T00:10:34.480Z,10.60
2019-05-21T00:13:03.057Z,17.40
2019-05-21T00:15:31.754Z,16.47
2019-05-21T00:18:00.324Z,15.37
2019-05-21T00:20:28.974Z,12.77
2019-05-21T00:22:57.630Z,17.67
2019-05-21T00:25:26.208Z,11.33
2019-05-21T00:27:57.767Z,14.30
2019-05-21T00:31:02.907Z,16.17
2019-05-21T00:34:07.754Z,16.43
2019-05-21T00:37:14.616Z,15.83
2019-05-21T00:40:19.481Z,15.70
2019-05-21T00:42:48.142Z,16.17
2019-05-21T00:45:16.796Z,13.80
2019-05-21T00:47:45.458Z,16.63
2019-05-21T00:50:14.202Z,12.70
2019-05-21T00:52:42.887Z,12.57
2019-05-21T00:55:11.635Z,17.83
2019-05-21T00:57:40.219Z,22.20
2019-05-21T01:00:09.746Z,13.70
2019-05-21T01:02:38.580Z,14.33
2019-05-21T01:05:07.332Z,14.33
2019-05-21T01:07:35.983Z,13.90
2019-05-21T01:10:06.549Z,13.77
2019-05-21T01:12:35.060Z,19.00
2019-05-21T01:15:05.710Z,14.53
2019-05-21T01:17:34.319Z,16.33
2019-05-21T01:20:02.964Z,12.40
2019-05-21T01:22:31.532Z,13.37
2019-05-21T01:25:00.101Z,14.70
2019-05-21T01:27:31.074Z,15.40
2019-05-21T01:29:59.582Z,14.70
2019-05-21T01:32:28.133Z,14.07
2019-05-21T01:34:56.791Z,16.80
2019-05-21T01:37:25.404Z,13.27
2019-05-21T01:39:53.973Z,16.27
2019-05-21T01:42:22.597Z,14.60
2019-05-21T01:44:51.243Z,15.17
2019-05-21T01:47:19.788Z,15.73
2019-05-21T01:49:48.434Z,19.63
2019-05-21T01:52:17.039Z,15.50
2019-05-21T01:54:45.652Z,18.30
2019-05-21T01:57:14.246Z,17.77
2019-05-21T01:59:42.820Z,16.97
2019-05-21T02:02:11.457Z,16.70
2019-05-21T02:04:39.929Z,17.17
2019-05-21T02:07:08.558Z,14.70
2019-05-21T02:09:38.843Z,16.50
2019-05-21T02:12:10.648Z,15.30
2019-05-21T02:14:37.714Z,13.97
2019-05-21T02:17:06.394Z,15.63
2019-05-21T02:19:37.366Z,15.10
2019-05-21T02:22:05.992Z,12.30
2019-05-21T02:24:34.556Z,14.00
2019-05-21T02:27:03.135Z,16.50
2019-05-21T02:29:31.646Z,16.23
2019-05-21T02:32:00.221Z,16.07
2019-05-21T02:34:28.898Z,15.70
2019-05-21T02:36:57.547Z,14.80
2019-05-21T02:39:26.055Z,11.60
2019-05-21T02:41:54.732Z,14.73
2019-05-21T02:44:23.286Z,16.33
2019-05-21T02:46:51.987Z,21.50
2019-05-21T02:49:20.635Z,20.60
2019-05-21T02:51:49.220Z,27.53
2019-05-21T02:54:17.805Z,23.17
2019-05-21T02:56:46.495Z,21.90
2019-05-21T02:59:15.082Z,23.07
2019-05-21T03:01:45.376Z,21.70
2019-05-21T03:04:14.032Z,19.73
2019-05-21T03:06:42.650Z,19.30
2019-05-21T03:09:11.363Z,20.80
2019-05-21T03:11:39.988Z,26.13
2019-05-21T03:14:08.606Z,22.30
2019-05-21T03:16:37.201Z,20.73
2019-05-21T03:19:05.861Z,23.57
2019-05-21T03:21:34.436Z,18.67
2019-05-21T03:24:02.975Z,21.50
2019-05-21T03:26:34.039Z,23.53
2019-05-21T03:29:02.628Z,17.50
2019-05-21T03:31:31.482Z,18.13
2019-05-21T03:34:00.161Z,16.43
2019-05-21T03:36:33.113Z,17.80
2019-05-21T03:38:59.094Z,19.53
2019-05-21T03:41:27.776Z,18.00
2019-05-21T03:43:56.428Z,17.70
2019-05-21T03:46:25.048Z,15.00
2019-05-21T03:48:53.685Z,19.53
2019-05-21T03:51:22.344Z,19.67
2019-05-21T03:53:51.005Z,16.87
2019-05-21T03:56:19.532Z,16.00
2019-05-21T03:58:48.113Z,15.47
2019-05-21T04:01:16.701Z,15.00
2019-05-21T04:03:45.352Z,14.60
2019-05-21T04:06:13.868Z,12.37
2019-05-21T04:08:42.440Z,17.33
2019-05-21T04:11:11.194Z,15.77
2019-05-21T04:13:39.850Z,11.17
2019-05-21T04:16:10.136Z,10.00
2019-05-21T04:18:46.175Z,13.13
2019-05-21T04:21:14.737Z,9.67
2019-05-21T04:23:43.367Z,10.43
2019-05-21T04:26:12.005Z,11.67
2019-05-21T04:28:40.567Z,11.13
2019-05-21T04:31:09.224Z,10.90
2019-05-21T04:33:37.801Z,13.80
2019-05-21T04:36:06.459Z,12.07
2019-05-21T04:38:35.090Z,11.20
2019-05-21T04:41:03.740Z,10.37
2019-05-21T04:43:32.260Z,12.73
2019-05-21T04:46:00.864Z,11.03
2019-05-21T04:48:29.438Z,9.50
2019-05-21T04:50:58.135Z,11.83
2019-05-21T04:53:26.798Z,12.43
2019-05-21T04:55:55.449Z,11.07
2019-05-21T04:58:24.088Z,10.27
2019-05-21T05:00:52.708Z,12.57
2019-05-21T05:03:21.348Z,9.73
2019-05-21T05:05:49.919Z,12.00
2019-05-21T05:08:18.600Z,10.00
2019-05-21T05:10:49.269Z,9.60
2019-05-21T05:13:17.642Z,12.97
2019-05-21T05:15:46.294Z,11.23
2019-05-21T05:18:14.856Z,8.37
2019-05-21T05:20:43.502Z,7.73
2019-05-21T05:23:12.078Z,8.60
2019-05-21T05:25:40.765Z,10.00
2019-05-21T05:28:09.351Z,12.77
2019-05-21T05:30:37.998Z,8.53
2019-05-21T05:33:06.691Z,10.03
2019-05-21T05:35:35.350Z,8.83
2019-05-21T05:38:04.029Z,8.70
2019-05-21T05:40:32.783Z,11.43
2019-05-21T05:43:04.127Z,10.10
2019-05-21T05:45:32.816Z,11.33
2019-05-21T05:48:01.388Z,8.10
2019-05-21T05:50:43.921Z,8.87
2019-05-21T05:53:12.565Z,4.77
2019-05-21T05:55:41.125Z,8.43
2019-05-21T05:58:09.712Z,5.20
2019-05-21T06:00:38.424Z,7.60
2019-05-21T06:03:07.075Z,6.57
2019-05-21T06:05:35.716Z,9.63
2019-05-21T06:08:04.739Z,5.20
2019-05-21T06:10:33.558Z,7.17
2019-05-21T06:13:02.243Z,11.87
2019-05-21T06:15:30.962Z,6.10
2019-05-21T06:17:59.527Z,6.30
2019-05-21T06:20:28.185Z,9.93
2019-05-21T06:22:56.820Z,5.73
2019-05-21T06:25:26.486Z,10.13
2019-05-21T06:27:55.196Z,6.67
2019-05-21T06:30:23.905Z,5.40
2019-05-21T06:32:52.461Z,6.50
2019-05-21T06:35:21.122Z,8.07
2019-05-21T06:37:49.818Z,8.90
2019-05-21T06:40:20.047Z,17.83
2019-05-21T06:42:48.538Z,6.43
2019-05-21T06:45:17.585Z,8.00
2019-05-21T06:47:46.127Z,5.90
2019-05-21T06:50:14.773Z,4.83
2019-05-21T06:52:45.884Z,5.70
2019-05-21T06:55:14.544Z,8.10
2019-05-21T06:57:43.040Z,8.43
2019-05-21T07:00:11.815Z,12.13
2019-05-21T07:02:40.604Z,3.47
2019-05-21T07:05:10.770Z,6.13
2019-05-21T07:07:40.311Z,6.37
2019-05-21T07:10:09.243Z,6.87
2019-05-21T07:12:37.905Z,7.73
2019-05-21T07:15:07.697Z,6.57
2019-05-21T07:17:36.256Z,5.47
2019-05-21T07:20:07.086Z,6.93
2019-05-21T07:22:35.816Z,10.93
2019-05-21T07:25:06.397Z,8.17
2019-05-21T07:27:35.033Z,7.77
2019-05-21T07:30:03.849Z,26.50
2019-05-21T07:32:32.507Z,12.43
2019-05-21T07:35:01.077Z,5.90
2019-05-21T07:37:29.743Z,4.60
2019-05-21T07:39:58.432Z,5.67
2019-05-21T07:42:26.997Z,7.22
2019-05-21T07:44:55.543Z,8.35
2019-05-21T07:47:24.228Z,8.48
2019-05-21T07:49:52.917Z,3.67
2019-05-21T07:52:21.458Z,4.40
2019-05-21T07:54:50.032Z,7.25
2019-05-21T07:57:18.715Z,5.65
2019-05-21T07:59:47.298Z,11.18
2019-05-21T08:02:15.937Z,5.90
2019-05-21T08:04:44.472Z,9.00
2019-05-21T08:07:13.102Z,3.55
2019-05-21T08:09:41.780Z,5.47
2019-05-21T08:12:27.824Z,5.22
2019-05-21T08:14:40.657Z,9.90
2019-05-21T08:17:09.278Z,8.75
2019-05-21T08:19:38.369Z,5.05
2019-05-21T08:22:07.032Z,5.28
2019-05-21T08:24:35.666Z,4.53
2019-05-21T08:27:04.729Z,3.85
2019-05-21T08:29:33.402Z,4.95
2019-05-21T08:32:01.902Z,4.53
2019-05-21T08:34:30.519Z,7.40
2019-05-21T08:36:59.184Z,2.87
2019-05-21T08:39:30.650Z,6.33
2019-05-21T08:41:59.310Z,6.75
2019-05-21T08:44:27.872Z,8.20
2019-05-21T08:46:56.586Z,3.98
2019-05-21T08:49:25.279Z,4.20
2019-05-21T08:51:53.836Z,6.72
2019-05-21T08:54:40.648Z,5.72
2019-05-21T08:57:18.061Z,13.68
2019-05-21T08:59:47.050Z,4.92
2019-05-21T09:02:15.784Z,3.90
2019-05-21T09:04:46.713Z,6.58
2019-05-21T09:07:14.824Z,5.90
2019-05-21T09:09:50.039Z,4.42
2019-05-21T09:12:13.761Z,7.58
2019-05-21T09:14:42.418Z,7.60
2019-05-21T09:17:11.080Z,6.55
2019-05-21T09:19:39.909Z,6.33
2019-05-21T09:22:08.595Z,3.05
2019-05-21T09:24:37.239Z,5.80
2019-05-21T09:27:05.878Z,7.37
2019-05-21T09:29:34.525Z,4.87
2019-05-21T09:32:03.246Z,4.67
2019-05-21T09:34:47.440Z,6.15
2019-05-21T09:37:02.248Z,2.92
2019-05-21T09:39:30.926Z,4.15
2019-05-21T09:41:59.614Z,4.50
2019-05-21T09:44:28.261Z,5.85
2019-05-21T09:46:56.938Z,3.20
2019-05-21T09:49:25.607Z,4.53
2019-05-21T09:51:54.148Z,8.23
2019-05-21T09:54:26.016Z,4.35
2019-05-21T09:56:54.595Z,2.85
2019-05-21T09:59:24.876Z,2.90
2019-05-21T10:01:55.114Z,4.40
2019-05-21T10:04:23.667Z,2.35
2019-05-21T10:06:52.302Z,2.87
2019-05-21T10:09:21.219Z,5.70
2019-05-21T10:11:49.858Z,3.95
2019-05-21T10:14:18.549Z,5.42
2019-05-21T10:16:47.272Z,4.30
2019-05-21T10:19:15.902Z,3.58
2019-05-21T10:21:44.471Z,4.60
2019-05-21T10:24:13.102Z,3.87
2019-05-21T10:26:41.750Z,2.98
2019-05-21T10:29:10.407Z,8.55
2019-05-21T10:31:39.039Z,5.85
2019-05-21T10:34:07.826Z,7.90
2019-05-21T10:36:36.411Z,2.52
2019-05-21T10:39:07.385Z,2.42
2019-05-21T10:41:38.822Z,5.22
2019-05-21T10:44:07.611Z,5.80
2019-05-21T10:46:36.257Z,8.23
2019-05-21T10:49:05.338Z,4.10
2019-05-21T10:51:33.972Z,3.70
2019-05-21T10:54:03.385Z,3.92
2019-05-21T10:56:46.706Z,4.87
2019-05-21T10:59:05.250Z,3.22
2019-05-21T11:01:44.552Z,3.60
2019-05-21T11:04:20.838Z,34.43
2019-05-21T11:06:49.461Z,2.67
2019-05-21T11:09:22.270Z,5.40
2019-05-21T11:11:50.956Z,3.77
2019-05-21T11:14:19.619Z,3.67
2019-05-21T11:16:48.295Z,2.72
2019-05-21T11:19:16.978Z,3.05
2019-05-21T11:21:48.363Z,7.70
2019-05-21T11:24:17.075Z,5.40
2019-05-21T11:26:45.707Z,3.02
2019-05-21T11:29:14.266Z,2.15
2019-05-21T11:31:55.717Z,3.65
2019-05-21T11:34:13.280Z,7.05
2019-05-21T11:36:41.971Z,4.72
2019-05-21T11:39:10.706Z,5.22
2019-05-21T11:41:39.375Z,5.08
2019-05-21T11:44:08.113Z,7.28
2019-05-21T11:46:36.824Z,7.22
2019-05-21T11:49:05.797Z,3.45
2019-05-21T11:51:34.440Z,15.10
2019-05-21T11:54:03.018Z,6.17
2019-05-21T11:56:31.585Z,9.38
2019-05-21T11:59:00.190Z,6.55
2019-05-21T12:01:28.801Z,4.85
2019-05-21T12:03:57.389Z,10.53
2019-05-21T12:06:26.050Z,7.03
2019-05-21T12:08:57.125Z,7.40
2019-05-21T12:11:24.855Z,5.65
2019-05-21T12:13:53.469Z,5.95
2019-05-21T12:16:22.138Z,10.63
2019-05-21T12:18:51.032Z,5.78
2019-05-21T12:21:19.622Z,4.45
2019-05-21T12:23:48.255Z,3.87
2019-05-21T12:26:16.958Z,6.28
2019-05-21T12:28:45.585Z,5.00
2019-05-21T12:31:14.240Z,5.00
2019-05-21T12:33:42.925Z,3.08
2019-05-21T12:36:11.497Z,15.23
2019-05-21T12:38:40.074Z,5.55
2019-05-21T12:41:08.640Z,5.08
2019-05-21T12:43:40.284Z,3.92
2019-05-21T12:46:08.947Z,3.75
2019-05-21T12:48:37.598Z,2.95
2019-05-21T12:51:06.237Z,6.37
2019-05-21T12:53:34.855Z,5.90
2019-05-21T12:56:03.499Z,5.62
2019-05-21T12:58:32.002Z,4.95
2019-05-21T13:01:00.706Z,9.65
2019-05-21T13:03:29.344Z,3.60
2019-05-21T13:05:58.038Z,3.47
2019-05-21T13:08:26.696Z,1.98
2019-05-21T13:10:55.352Z,2.15
2019-05-21T13:13:23.996Z,4.03
2019-05-21T13:15:52.645Z,4.33
2019-05-21T13:18:21.316Z,3.47
2019-05-21T13:20:49.936Z,3.55
2019-05-21T13:23:18.522Z,6.75
2019-05-21T13:25:47.137Z,2.72
2019-05-21T13:28:15.849Z,2.70
2019-05-21T13:30:44.447Z,5.50
2019-05-21T13:33:19.367Z,3.40
2019-05-21T13:35:46.238Z,3.02
2019-05-21T13:38:14.924Z,2.50
2019-05-21T13:40:43.729Z,3.27
2019-05-21T13:43:12.377Z,2.58
2019-05-21T13:45:41.037Z,2.55
2019-05-21T13:48:09.718Z,12.88
2019-05-21T13:50:38.291Z,3.42
2019-05-21T13:53:06.940Z,8.93
2019-05-21T13:55:35.514Z,4.75
2019-05-21T13:58:04.365Z,9.65
2019-05-21T14:00:35.039Z,9.93
2019-05-21T14:03:06.663Z,3.08
2019-05-21T14:05:35.294Z,2.15
2019-05-21T14:08:03.878Z,2.33
2019-05-21T14:10:32.521Z,2.47
2019-05-21T14:13:01.247Z,10.08
2019-05-21T14:15:30.006Z,6.08
2019-05-21T14:17:58.557Z,3.08
2019-05-21T14:20:27.190Z,2.90
2019-05-21T14:22:55.760Z,4.72
2019-05-21T14:25:24.468Z,3.15
2019-05-21T14:27:53.118Z,3.98
2019-05-21T14:30:21.881Z,4.42
2019-05-21T14:32:50.554Z,2.35
2019-05-21T14:35:19.169Z,2.55
2019-05-21T14:37:47.807Z,3.10
2019-05-21T14:40:31.011Z,2.12
2019-05-21T14:42:59.526Z,3.83
2019-05-21T14:45:18.309Z,7.28
2019-05-21T14:47:46.938Z,6.08
2019-05-21T14:50:16.627Z,4.95
2019-05-21T14:52:45.124Z,3.72
2019-05-21T14:55:13.775Z,6.12
2019-05-21T14:57:42.409Z,4.12
2019-05-21T15:00:22.428Z,2.52
2019-05-21T15:02:51.061Z,4.00
2019-05-21T15:05:22.518Z,4.03
2019-05-21T15:07:51.167Z,6.65
2019-05-21T15:10:19.806Z,3.35
2019-05-21T15:12:48.486Z,2.98
2019-05-21T15:15:17.304Z,4.17
2019-05-21T15:17:45.858Z,3.33
2019-05-21T15:20:34.943Z,3.00
2019-05-21T15:23:03.578Z,1.50
2019-05-21T15:25:32.362Z,16.05
2019-05-21T15:28:00.996Z,2.05
2019-05-21T15:30:29.564Z,2.65
2019-05-21T15:32:58.250Z,1.35
2019-05-21T15:35:26.896Z,1.42
2019-05-21T15:37:55.520Z,4.50
2019-05-21T15:40:24.145Z,3.08
2019-05-21T15:42:53.805Z,9.20
2019-05-21T15:45:22.837Z,2.45
2019-05-21T15:47:54.455Z,2.58
2019-05-21T15:50:23.139Z,9.68
2019-05-21T15:52:57.529Z,6.75
2019-05-21T15:55:26.140Z,3.12
2019-05-21T15:57:54.774Z,2.40
2019-05-21T16:00:23.789Z,2.27
2019-05-21T16:02:52.350Z,5.28
2019-05-21T16:05:21.061Z,2.72
2019-05-21T16:07:49.621Z,3.45
2019-05-21T16:10:18.269Z,5.37
2019-05-21T16:12:46.849Z,3.27
2019-05-21T16:15:15.526Z,6.85
2019-05-21T16:17:44.088Z,5.33
2019-05-21T16:20:17.103Z,2.98
2019-05-21T16:22:48.730Z,4.47
2019-05-21T16:25:17.379Z,1.05
2019-05-21T16:27:45.943Z,1.40
2019-05-21T16:30:14.723Z,5.75
2019-05-21T16:32:43.297Z,2.67
2019-05-21T16:35:11.916Z,3.37
2019-05-21T16:37:40.522Z,4.15
2019-05-21T16:40:09.370Z,1.60
2019-05-21T16:42:38.118Z,1.80
2019-05-21T16:45:07.655Z,9.28
2019-05-21T16:47:45.684Z,5.50
2019-05-21T16:50:10.547Z,3.12
2019-05-21T16:52:39.229Z,3.42
2019-05-21T16:55:08.630Z,2.98
2019-05-21T16:57:37.343Z,1.10
2019-05-21T17:00:07.783Z,3.65
2019-05-21T17:02:36.417Z,4.40
2019-05-21T17:05:07.039Z,1.75
2019-05-21T17:07:38.506Z,2.00
2019-05-21T17:10:07.958Z,4.72
2019-05-21T17:12:36.618Z,2.40
2019-05-21T17:15:12.085Z,2.83
2019-05-21T17:17:40.619Z,0.95
2019-05-21T17:20:09.746Z,2.97
2019-05-21T17:22:39.122Z,2.23
2019-05-21T17:25:08.555Z,3.07
2019-05-21T17:27:37.192Z,2.50
2019-05-21T17:30:09.830Z,2.83
2019-05-21T17:32:38.501Z,4.47
2019-05-21T17:35:07.913Z,4.80
2019-05-21T17:37:36.544Z,1.20
2019-05-21T17:40:05.989Z,7.00
2019-05-21T17:42:34.638Z,4.10
2019-05-21T17:45:04.164Z,2.80
2019-05-21T17:47:32.778Z,4.07
2019-05-21T17:50:01.410Z,1.73
2019-05-21T17:52:30.066Z,2.30
2019-05-21T17:54:58.805Z,2.30
2019-05-21T17:57:29.130Z,2.87
2019-05-21T17:59:57.703Z,2.43
2019-05-21T18:02:28.138Z,3.53
2019-05-21T18:05:00.166Z,6.30
2019-05-21T18:07:28.889Z,3.03
2019-05-21T18:09:58.329Z,6.23
2019-05-21T18:12:31.929Z,2.60
2019-05-21T18:14:58.349Z,4.00
2019-05-21T18:17:28.660Z,2.77
2019-05-21T18:19:57.225Z,3.33
2019-05-21T18:22:26.695Z,2.57
2019-05-21T18:24:55.290Z,1.97
2019-05-21T18:27:24.126Z,3.23
2019-05-21T18:29:52.734Z,2.23
2019-05-21T18:32:21.473Z,2.40
2019-05-21T18:34:53.016Z,3.10
2019-05-21T18:37:21.629Z,3.33
2019-05-21T18:39:50.260Z,2.20
2019-05-21T18:42:22.753Z,2.13
2019-05-21T18:44:51.553Z,1.83
2019-05-21T18:47:20.365Z,2.53
2019-05-21T18:49:48.938Z,5.20
2019-05-21T18:52:17.513Z,4.77
2019-05-21T18:54:47.955Z,1.83
2019-05-21T18:57:16.708Z,3.37
2019-05-21T18:59:45.274Z,3.67
2019-05-21T19:02:14.986Z,2.80
2019-05-21T19:04:43.635Z,8.83
2019-05-21T19:07:15.565Z,3.17
2019-05-21T19:09:44.206Z,2.70
2019-05-21T19:12:12.775Z,3.03
2019-05-21T19:14:45.045Z,3.23
2019-05-21T19:17:18.784Z,3.27
2019-05-21T19:19:47.371Z,5.70
2019-05-21T19:22:15.932Z,6.70
2019-05-21T19:24:44.600Z,5.07
2019-05-21T19:27:13.233Z,6.00
2019-05-21T19:29:41.903Z,4.53
2019-05-21T19:32:10.539Z,4.50
2019-05-21T19:34:39.035Z,7.93
2019-05-21T19:37:10.741Z,7.10
2019-05-21T19:39:39.723Z,14.20
2019-05-21T19:42:08.446Z,8.83
2019-05-21T19:44:37.051Z,5.50
2019-05-21T19:47:05.617Z,9.93
2019-05-21T19:49:34.252Z,11.37
2019-05-21T19:52:02.886Z,3.57
2019-05-21T19:54:31.564Z,4.27
2019-05-21T19:57:00.194Z,4.07
2019-05-21T19:59:28.770Z,7.43
2019-05-21T20:01:57.274Z,5.13
2019-05-21T20:04:26.483Z,5.57
2019-05-21T20:06:55.223Z,8.77
2019-05-21T20:09:26.914Z,4.63
2019-05-21T20:11:58.518Z,4.13
2019-05-21T20:14:27.761Z,5.93
2019-05-21T20:16:56.417Z,6.07
2019-05-21T20:19:25.351Z,7.03
2019-05-21T20:21:54.603Z,8.13
2019-05-21T20:24:24.115Z,17.37
2019-05-21T20:26:52.683Z,5.23
2019-05-21T20:29:22.063Z,9.00
2019-05-21T20:31:50.626Z,6.47
2019-05-21T20:34:19.326Z,5.67
2019-05-21T20:36:48.110Z,7.10
2019-05-21T20:39:18.549Z,8.77
2019-05-21T20:41:48.070Z,5.67
2019-05-21T20:44:18.289Z,9.03
2019-05-21T20:46:47.003Z,8.33
2019-05-21T20:49:16.247Z,6.30
2019-05-21T20:51:45.035Z,7.90
2019-05-21T20:54:16.324Z,12.40
2019-05-21T20:56:45.140Z,11.07
2019-05-21T20:59:13.777Z,9.80
2019-05-21T21:01:43.798Z,9.03
2019-05-21T21:04:12.709Z,9.17
2019-05-21T21:06:41.867Z,10.57
2019-05-21T21:09:11.978Z,8.23
2019-05-21T21:11:41.686Z,6.13
2019-05-21T21:14:17.963Z,6.90
2019-05-21T21:16:43.630Z,5.93
2019-05-21T21:19:12.537Z,6.93
2019-05-21T21:21:41.964Z,8.27
2019-05-21T21:24:10.805Z,9.03
2019-05-21T21:26:39.369Z,6.23
2019-05-21T21:29:09.203Z,5.87
2019-05-21T21:31:37.919Z,3.27
2019-05-21T21:34:06.570Z,4.23
2019-05-21T21:36:35.681Z,5.17
2019-05-21T21:39:06.638Z,5.87
2019-05-21T21:41:40.054Z,10.10
2019-05-21T21:44:08.690Z,4.97
2019-05-21T21:46:37.323Z,4.37
2019-05-21T21:49:06.344Z,3.47
2019-05-21T21:51:35.540Z,6.40
2019-05-21T21:54:04.480Z,4.50
2019-05-21T21:56:33.133Z,4.93
2019-05-21T21:59:01.828Z,6.50
2019-05-21T22:01:54.497Z,5.23
2019-05-21T22:04:28.116Z,4.87
2019-05-21T22:06:56.793Z,5.40
2019-05-21T22:09:27.053Z,4.80
2019-05-21T22:11:56.858Z,4.77
2019-05-21T22:14:26.331Z,7.80
2019-05-21T22:16:58.719Z,6.07
2019-05-21T22:19:27.369Z,14.47
2019-05-21T22:21:57.085Z,9.03
2019-05-21T22:24:26.196Z,15.63
2019-05-21T22:26:54.786Z,23.40
2019-05-21T22:29:23.370Z,14.23
2019-05-21T22:31:52.771Z,13.23
2019-05-21T22:34:21.504Z,14.13
2019-05-21T22:36:50.144Z,13.70
2019-05-21T22:39:20.482Z,11.20
2019-05-21T22:41:49.065Z,13.77
2019-05-21T22:44:17.712Z,9.97
2019-05-21T22:46:48.058Z,16.40
2019-05-21T22:49:16.676Z,13.83
2019-05-21T22:51:45.340Z,13.47
2019-05-21T22:54:13.992Z,10.43
2019-05-21T22:56:42.739Z,13.10
2019-05-21T22:59:11.304Z,10.07
2019-05-21T23:01:40.040Z,12.03
2019-05-21T23:04:09.254Z,11.73
2019-05-21T23:06:38.245Z,14.00
2019-05-21T23:09:08.454Z,6.70
2019-05-21T23:11:37.203Z,8.80
2019-05-21T23:14:05.955Z,10.10
2019-05-21T23:16:34.696Z,7.63
2019-05-21T23:19:03.915Z,5.10
2019-05-21T23:21:34.338Z,8.67
2019-05-21T23:24:03.588Z,11.23
2019-05-21T23:26:33.735Z,7.67
2019-05-21T23:29:02.741Z,8.80
2019-05-21T23:31:32.357Z,11.23
2019-05-21T23:36:47.684Z,8.40
2019-05-21T23:39:17.943Z,5.60
2019-05-21T23:41:46.744Z,8.63
2019-05-21T23:44:15.592Z,5.60
2019-05-21T23:46:44.344Z,5.27
2019-05-21T23:49:12.918Z,6.83
2019-05-21T23:51:41.576Z,5.97
2019-05-21T23:54:10.281Z,4.57
2019-05-21T23:56:38.929Z,5.23
2019-05-21T23:59:07.940Z,7.33
